Historique des stations

Station météo de Digny

Altitude de la station : 230 m







Données météorologiques pour le 17/09/2021
Date
Heure
Températures Humidité Point de rosée Vitesse
du vent
Direction Rafales Windchill Pression Pluviométrie
Cumul
Date
Heure
Températures Humidité Point de rosée Vitesse
du vent
Direction Rafales Windchill Pression Pluviométrie
Cumul
17/09/2021 09:5415.2 °C92 %13.9 °C-ESE2 km/h15.0 1015 hPa-
17/09/2021 09:3814.4 °C94 %13.3 °C---14.4 1015 hPa-
17/09/2021 09:2213.9 °C95 %13.3 °C---13.9 1015 hPa-
17/09/2021 09:0713.6 °C96 %12.8 °C---13.9 1015 hPa-
17/09/2021 08:5113.3 °C96 %12.8 °C---13.3 1015 hPa-
17/09/2021 08:3612.8 °C97 %12.2 °C---12.8 1015 hPa-
17/09/2021 08:2112.7 °C97 %12.2 °C---12.8 1015 hPa-
17/09/2021 08:0512.6 °C97 %12.2 °C---12.8 1015 hPa-
17/09/2021 07:5012.5 °C97 %12.2 °C---12.8 1015 hPa-
17/09/2021 07:3412.4 °C97 %12.2 °C---12.2 1015 hPa-
17/09/2021 07:1912.5 °C97 %12.2 °C---12.8 1015 hPa-
17/09/2021 07:0412.5 °C97 %12.2 °C---12.8 1015 hPa-
17/09/2021 06:4812.4 °C97 %12.2 °C---12.2 1015 hPa-
17/09/2021 06:3312.2 °C97 %11.7 °C---12.2 1016 hPa-
17/09/2021 06:1812.0 °C97 %11.7 °C---12.2 1016 hPa-
17/09/2021 06:0211.6 °C97 %11.1 °C---11.7 1016 hPa-
17/09/2021 05:4711.3 °C97 %11.1 °C---11.1 1016 hPa-
17/09/2021 05:3211.0 °C97 %10.6 °C---11.1 1016 hPa-
17/09/2021 05:1610.7 °C96 %10.0 °C---10.6 1016 hPa-
17/09/2021 05:0110.8 °C96 %10.0 °C---10.6 1016 hPa-
17/09/2021 04:4610.6 °C96 %10.0 °C---10.6 1016 hPa-
17/09/2021 04:3010.7 °C95 %10.0 °C---10.6 1016 hPa-
17/09/2021 04:1510.9 °C96 %10.6 °C---11.1 1016 hPa-
17/09/2021 03:5910.5 °C96 %10.0 °C---10.6 1017 hPa-
17/09/2021 03:4410.1 °C94 %9.4 °C---10.0 1017 hPa-
17/09/2021 03:2910.5 °C93 %9.4 °C---10.6 1017 hPa-
17/09/2021 03:1311.5 °C95 %10.6 °C---11.7 1017 hPa-
17/09/2021 02:5811.6 °C95 %11.1 °C---11.7 1017 hPa-
17/09/2021 02:4311.6 °C95 %11.1 °C---11.7 1017 hPa-
17/09/2021 02:2711.5 °C94 %10.6 °C---11.7 1017 hPa-
17/09/2021 02:1211.5 °C94 %10.6 °C---11.7 1017 hPa-
17/09/2021 01:5711.8 °C93 %10.6 °C---11.7 1017 hPa-
17/09/2021 01:4111.8 °C93 %10.6 °C---11.7 1017 hPa-
17/09/2021 01:2611.9 °C93 %11.1 °C---12.2 1018 hPa-
17/09/2021 01:1112.0 °C93 %11.1 °C---12.2 1018 hPa-
17/09/2021 00:5512.1 °C92 %11.1 °C---12.2 1018 hPa-
17/09/2021 00:4012.3 °C92 %11.1 °C---12.2 1018 hPa-
17/09/2021 00:2512.6 °C91 %11.1 °C---12.8 1018 hPa-
17/09/2021 00:0812.7 °C90 %11.1 °C---12.8 1018 hPa-


Minima :

Température : 10.1 °C
Humidité : 90 %
Point de rosée : 9.4 °C
Vent moyen : - km/h
Windchill : 10.0
Pression atm. : 1015 hPa
Maxima :

Température : 15.2 °C
Humidité : 97 %
Point de rosée : 13.9 °C
Vent moyen : 0 km/h
Windchill : 15.0
Pression atm. : 1018 hPa
Rafales max : 2 km/h
Cumul de pluie sur 24H : 0 mm

Digny est une commune du département Eure-et-Loir (28).
La station météorologique du réseau de l'association la plus proche de Digny est celle de Le Mesnil-Thomas



Icône Facebook Association Météo Centre Icône Twitter Association Météo Centre Icône Chaîne Youtube Association Météo Centre Icône contact Association Météo Centre Icône Insta Association Météo Centre